Аэропорт: Могилёв. Могилёв

ICAO: UMOO

METAR:
2018/11/21 13:00
UMOO 211300Z 36005MPS 9999 OVC012 M04/M06 Q1027 NOSIG
METAR:
2016/01/23 06:00
TAF UMOO 230500Z 2306/2315 28005MPS 4000 -SN BR OVC008 
      TEMPO 2306/2315 1200 SN BR BKN005